Main page
METAR-TAF:

METAR-TAF

Airports :

El Arish International Airport

Arish, Egypt

latitude: 31-05N, longitude: 033-49E, elevation: 31 m

METAR: missing

Time: 18:39 (16:39 UTC)

Forecast

The report was made 5 hours and 39 minutes ago, at 11:00 UTC
Forecast valid from 22 at 12 UTC to 23 at 18 UTC
Wind 12 kt from the Northwest
Visibility 10 km or more
Scattered clouds at a height of 2500 ft
Becoming
from 22 at 21 UTC to 22 at 23 UTC
Wind 3 kt from variable directions
Becoming
from 23 at 09 UTC to 23 at 11 UTC
Wind 14 kt from the North/Northwest

TAF: HEAR 221100Z 2212/2318 32012KT 9999 SCT025 BECMG 2221/2223 VRB03KT BECMG 2309/2311 34014KT

Weather observations and forecasts of more than 4000 airports (METAR and TAF reports).

The available stations are represented by yellow and red dots on the map.

Hover mouse over dot to see the name of the station.

Then click to see weather observations and forecasts.

To change the map : click on the green buttons with a black cross to zoom in, on the green button with a dash to zoom out, or on the green arrows for adjacent maps.


METAR-TAF: